sensor_id;sensor_type;location;lat;lon;timestamp;temperature;humidity
44166;DHT22;30476;53.468;9.826;2022-10-16T00:02:02;15.90;99.90
44166;DHT22;30476;53.468;9.826;2022-10-16T00:04:28;15.90;99.90
44166;DHT22;30476;53.468;9.826;2022-10-16T00:06:53;15.90;99.90
44166;DHT22;30476;53.468;9.826;2022-10-16T00:09:19;15.80;99.90
44166;DHT22;30476;53.468;9.826;2022-10-16T00:11:45;15.80;99.90
44166;DHT22;30476;53.468;9.826;2022-10-16T00:14:13;15.80;99.90
44166;DHT22;30476;53.468;9.826;2022-10-16T00:16:39;15.80;99.90
44166;DHT22;30476;53.468;9.826;2022-10-16T00:19:05;15.80;99.90
44166;DHT22;30476;53.468;9.826;2022-10-16T00:21:32;15.80;99.90
44166;DHT22;30476;53.468;9.826;2022-10-16T00:24:04;15.80;99.90
44166;DHT22;30476;53.468;9.826;2022-10-16T00:26:32;15.80;99.90
44166;DHT22;30476;53.468;9.826;2022-10-16T00:28:59;15.80;99.90
44166;DHT22;30476;53.468;9.826;2022-10-16T00:31:25;15.70;99.90
44166;DHT22;30476;53.468;9.826;2022-10-16T00:33:51;15.70;99.90
44166;DHT22;30476;53.468;9.826;2022-10-16T00:36:20;15.70;99.90
44166;DHT22;30476;53.468;9.826;2022-10-16T00:38:46;15.70;99.90
44166;DHT22;30476;53.468;9.826;2022-10-16T00:41:14;15.70;99.90
44166;DHT22;30476;53.468;9.826;2022-10-16T00:43:44;15.60;99.90
44166;DHT22;30476;53.468;9.826;2022-10-16T00:48:39;15.70;99.90
44166;DHT22;30476;53.468;9.826;2022-10-16T00:51:07;15.60;99.90
44166;DHT22;30476;53.468;9.826;2022-10-16T00:53:33;15.60;99.90
44166;DHT22;30476;53.468;9.826;2022-10-16T00:55:59;15.60;99.90
44166;DHT22;30476;53.468;9.826;2022-10-16T00:58:25;15.60;99.90
44166;DHT22;30476;53.468;9.826;2022-10-16T01:00:51;15.60;99.90
44166;DHT22;30476;53.468;9.826;2022-10-16T01:03:28;15.50;99.90
44166;DHT22;30476;53.468;9.826;2022-10-16T01:09:24;15.50;99.90
44166;DHT22;30476;53.468;9.826;2022-10-16T01:11:29;15.50;99.90
44166;DHT22;30476;53.468;9.826;2022-10-16T01:14:06;15.50;99.90
44166;DHT22;30476;53.468;9.826;2022-10-16T01:16:44;15.50;99.90
44166;DHT22;30476;53.468;9.826;2022-10-16T01:19:56;15.40;99.90
44166;DHT22;30476;53.468;9.826;2022-10-16T01:22:37;15.40;99.90
44166;DHT22;30476;53.468;9.826;2022-10-16T01:25:09;15.40;99.90
44166;DHT22;30476;53.468;9.826;2022-10-16T01:27:40;15.40;99.90
44166;DHT22;30476;53.468;9.826;2022-10-16T01:30:13;15.40;99.90
44166;DHT22;30476;53.468;9.826;2022-10-16T01:35:22;15.40;99.90
44166;DHT22;30476;53.468;9.826;2022-10-16T01:37:55;15.30;99.90
44166;DHT22;30476;53.468;9.826;2022-10-16T01:40:25;15.30;99.90
44166;DHT22;30476;53.468;9.826;2022-10-16T01:43:22;15.30;99.90
44166;DHT22;30476;53.468;9.826;2022-10-16T01:45:47;15.20;99.90
44166;DHT22;30476;53.468;9.826;2022-10-16T01:48:16;15.30;99.90
44166;DHT22;30476;53.468;9.826;2022-10-16T01:50:44;15.30;99.90
44166;DHT22;30476;53.468;9.826;2022-10-16T01:53:15;15.20;99.90
44166;DHT22;30476;53.468;9.826;2022-10-16T01:55:44;15.20;99.90
44166;DHT22;30476;53.468;9.826;2022-10-16T01:58:13;15.20;99.90
44166;DHT22;30476;53.468;9.826;2022-10-16T02:00:42;15.10;99.90
44166;DHT22;30476;53.468;9.826;2022-10-16T02:03:11;15.10;99.90
44166;DHT22;30476;53.468;9.826;2022-10-16T02:05:45;15.10;99.90
44166;DHT22;30476;53.468;9.826;2022-10-16T02:08:11;15.10;99.90
44166;DHT22;30476;53.468;9.826;2022-10-16T02:10:38;15.10;99.90
44166;DHT22;30476;53.468;9.826;2022-10-16T02:15:34;15.10;99.90
44166;DHT22;30476;53.468;9.826;2022-10-16T02:18:02;15.00;99.90
44166;DHT22;30476;53.468;9.826;2022-10-16T02:20:34;15.00;99.90
44166;DHT22;30476;53.468;9.826;2022-10-16T02:23:03;15.00;99.90
44166;DHT22;30476;53.468;9.826;2022-10-16T02:25:32;15.00;99.90
44166;DHT22;30476;53.468;9.826;2022-10-16T02:28:19;15.00;99.90
44166;DHT22;30476;53.468;9.826;2022-10-16T02:30:58;15.00;99.90
44166;DHT22;30476;53.468;9.826;2022-10-16T02:33:26;15.00;99.90
44166;DHT22;30476;53.468;9.826;2022-10-16T02:35:53;14.90;99.90
44166;DHT22;30476;53.468;9.826;2022-10-16T02:38:21;14.90;99.90
44166;DHT22;30476;53.468;9.826;2022-10-16T02:40:48;14.90;99.90
44166;DHT22;30476;53.468;9.826;2022-10-16T02:43:14;14.90;99.90
44166;DHT22;30476;53.468;9.826;2022-10-16T02:45:40;14.90;99.90
44166;DHT22;30476;53.468;9.826;2022-10-16T02:48:06;14.90;99.90
44166;DHT22;30476;53.468;9.826;2022-10-16T02:50:32;14.90;99.90
44166;DHT22;30476;53.468;9.826;2022-10-16T02:52:57;14.90;99.90
44166;DHT22;30476;53.468;9.826;2022-10-16T02:55:30;14.90;99.90
44166;DHT22;30476;53.468;9.826;2022-10-16T02:58:00;14.80;99.90
44166;DHT22;30476;53.468;9.826;2022-10-16T03:00:25;14.80;99.90
44166;DHT22;30476;53.468;9.826;2022-10-16T03:02:51;14.80;99.90
44166;DHT22;30476;53.468;9.826;2022-10-16T03:05:17;14.80;99.90
44166;DHT22;30476;53.468;9.826;2022-10-16T03:07:42;14.80;99.90
44166;DHT22;30476;53.468;9.826;2022-10-16T03:10:08;14.70;99.90
44166;DHT22;30476;53.468;9.826;2022-10-16T03:12:34;14.70;99.90
44166;DHT22;30476;53.468;9.826;2022-10-16T03:15:00;14.70;99.90
44166;DHT22;30476;53.468;9.826;2022-10-16T03:17:26;14.70;99.90
44166;DHT22;30476;53.468;9.826;2022-10-16T03:19:52;14.70;99.90
44166;DHT22;30476;53.468;9.826;2022-10-16T03:22:18;14.60;99.90
44166;DHT22;30476;53.468;9.826;2022-10-16T03:24:43;14.70;99.90
44166;DHT22;30476;53.468;9.826;2022-10-16T03:27:09;14.60;99.90
44166;DHT22;30476;53.468;9.826;2022-10-16T03:29:35;14.70;99.90
44166;DHT22;30476;53.468;9.826;2022-10-16T03:32:01;14.60;99.90
44166;DHT22;30476;53.468;9.826;2022-10-16T03:34:27;14.60;99.90
44166;DHT22;30476;53.468;9.826;2022-10-16T03:36:53;14.60;99.90
44166;DHT22;30476;53.468;9.826;2022-10-16T03:39:19;14.50;99.90
44166;DHT22;30476;53.468;9.826;2022-10-16T03:41:45;14.50;99.90
44166;DHT22;30476;53.468;9.826;2022-10-16T03:44:12;14.50;99.90
44166;DHT22;30476;53.468;9.826;2022-10-16T03:46:38;14.50;99.90
44166;DHT22;30476;53.468;9.826;2022-10-16T03:49:04;14.50;99.90
44166;DHT22;30476;53.468;9.826;2022-10-16T03:51:29;14.50;99.90
44166;DHT22;30476;53.468;9.826;2022-10-16T03:53:55;14.50;99.90
44166;DHT22;30476;53.468;9.826;2022-10-16T03:56:21;14.40;99.90
44166;DHT22;30476;53.468;9.826;2022-10-16T03:58:47;14.40;99.90
44166;DHT22;30476;53.468;9.826;2022-10-16T04:01:13;14.50;99.90
44166;DHT22;30476;53.468;9.826;2022-10-16T04:03:38;14.50;99.90
44166;DHT22;30476;53.468;9.826;2022-10-16T04:06:04;14.50;99.90
44166;DHT22;30476;53.468;9.826;2022-10-16T04:08:30;14.50;99.90
44166;DHT22;30476;53.468;9.826;2022-10-16T04:10:56;14.50;99.90
44166;DHT22;30476;53.468;9.826;2022-10-16T04:13:22;14.50;99.90
44166;DHT22;30476;53.468;9.826;2022-10-16T04:15:47;14.50;99.90
44166;DHT22;30476;53.468;9.826;2022-10-16T04:18:13;14.40;99.90
44166;DHT22;30476;53.468;9.826;2022-10-16T04:20:39;14.40;99.90
44166;DHT22;30476;53.468;9.826;2022-10-16T04:23:06;14.40;99.90
44166;DHT22;30476;53.468;9.826;2022-10-16T04:25:31;14.40;99.90
44166;DHT22;30476;53.468;9.826;2022-10-16T04:27:57;14.40;99.90
44166;DHT22;30476;53.468;9.826;2022-10-16T04:30:24;14.30;99.90
44166;DHT22;30476;53.468;9.826;2022-10-16T04:32:51;14.30;99.90
44166;DHT22;30476;53.468;9.826;2022-10-16T04:35:21;14.30;99.90
44166;DHT22;30476;53.468;9.826;2022-10-16T04:37:47;14.30;99.90
44166;DHT22;30476;53.468;9.826;2022-10-16T04:40:13;14.30;99.90
44166;DHT22;30476;53.468;9.826;2022-10-16T04:42:39;14.30;99.90
44166;DHT22;30476;53.468;9.826;2022-10-16T04:45:05;14.30;99.90
44166;DHT22;30476;53.468;9.826;2022-10-16T04:47:31;14.20;99.90
44166;DHT22;30476;53.468;9.826;2022-10-16T04:49:57;14.20;99.90
44166;DHT22;30476;53.468;9.826;2022-10-16T04:52:24;14.20;99.90
44166;DHT22;30476;53.468;9.826;2022-10-16T04:54:50;14.20;99.90
44166;DHT22;30476;53.468;9.826;2022-10-16T04:57:16;14.20;99.90
44166;DHT22;30476;53.468;9.826;2022-10-16T04:59:42;14.20;99.90
44166;DHT22;30476;53.468;9.826;2022-10-16T05:02:08;14.20;99.90
44166;DHT22;30476;53.468;9.826;2022-10-16T05:04:34;14.20;99.90
44166;DHT22;30476;53.468;9.826;2022-10-16T05:07:00;14.20;99.90
44166;DHT22;30476;53.468;9.826;2022-10-16T05:09:26;14.20;99.90
44166;DHT22;30476;53.468;9.826;2022-10-16T05:11:51;14.20;99.90
44166;DHT22;30476;53.468;9.826;2022-10-16T05:14:17;14.20;99.90
44166;DHT22;30476;53.468;9.826;2022-10-16T05:16:43;14.20;99.90
44166;DHT22;30476;53.468;9.826;2022-10-16T05:19:09;14.20;99.90
44166;DHT22;30476;53.468;9.826;2022-10-16T05:21:35;14.20;99.90
44166;DHT22;30476;53.468;9.826;2022-10-16T05:24:01;14.20;99.90
44166;DHT22;30476;53.468;9.826;2022-10-16T05:26:27;14.30;99.90
44166;DHT22;30476;53.468;9.826;2022-10-16T05:28:53;14.20;99.90
44166;DHT22;30476;53.468;9.826;2022-10-16T05:31:19;14.20;99.90
44166;DHT22;30476;53.468;9.826;2022-10-16T05:33:45;14.20;99.90
44166;DHT22;30476;53.468;9.826;2022-10-16T05:36:11;14.20;99.90
44166;DHT22;30476;53.468;9.826;2022-10-16T05:38:37;14.20;99.90
44166;DHT22;30476;53.468;9.826;2022-10-16T05:41:04;14.20;99.90
44166;DHT22;30476;53.468;9.826;2022-10-16T05:43:31;14.30;99.90
44166;DHT22;30476;53.468;9.826;2022-10-16T05:45:58;14.30;99.90
44166;DHT22;30476;53.468;9.826;2022-10-16T05:48:25;14.30;99.90
44166;DHT22;30476;53.468;9.826;2022-10-16T05:53:24;14.30;99.90
44166;DHT22;30476;53.468;9.826;2022-10-16T05:55:55;14.30;99.90
44166;DHT22;30476;53.468;9.826;2022-10-16T05:58:21;14.30;99.90
44166;DHT22;30476;53.468;9.826;2022-10-16T06:01:02;14.30;99.90
44166;DHT22;30476;53.468;9.826;2022-10-16T06:03:28;14.30;99.90
44166;DHT22;30476;53.468;9.826;2022-10-16T06:05:54;14.30;99.90
44166;DHT22;30476;53.468;9.826;2022-10-16T06:08:21;14.40;99.90
44166;DHT22;30476;53.468;9.826;2022-10-16T06:10:59;14.30;99.90
44166;DHT22;30476;53.468;9.826;2022-10-16T06:13:25;14.30;99.90
44166;DHT22;30476;53.468;9.826;2022-10-16T06:15:51;14.30;99.90
44166;DHT22;30476;53.468;9.826;2022-10-16T06:18:17;14.40;99.90
44166;DHT22;30476;53.468;9.826;2022-10-16T06:20:42;14.40;99.90
44166;DHT22;30476;53.468;9.826;2022-10-16T06:23:08;14.30;99.90
44166;DHT22;30476;53.468;9.826;2022-10-16T06:25:34;14.30;99.90
44166;DHT22;30476;53.468;9.826;2022-10-16T06:27:59;14.30;99.90
44166;DHT22;30476;53.468;9.826;2022-10-16T06:30:25;14.30;99.90
44166;DHT22;30476;53.468;9.826;2022-10-16T06:32:51;14.30;99.90
44166;DHT22;30476;53.468;9.826;2022-10-16T06:35:17;14.30;99.90
44166;DHT22;30476;53.468;9.826;2022-10-16T06:37:43;14.40;99.90
44166;DHT22;30476;53.468;9.826;2022-10-16T06:40:09;14.40;99.90
44166;DHT22;30476;53.468;9.826;2022-10-16T06:42:34;14.30;99.90
44166;DHT22;30476;53.468;9.826;2022-10-16T06:45:00;14.40;99.90
44166;DHT22;30476;53.468;9.826;2022-10-16T06:47:27;14.40;99.90
44166;DHT22;30476;53.468;9.826;2022-10-16T06:49:53;14.40;99.90
44166;DHT22;30476;53.468;9.826;2022-10-16T06:52:19;14.40;99.90
44166;DHT22;30476;53.468;9.826;2022-10-16T06:54:44;14.40;99.90
44166;DHT22;30476;53.468;9.826;2022-10-16T06:57:10;14.50;99.90
44166;DHT22;30476;53.468;9.826;2022-10-16T06:59:36;14.50;99.90
44166;DHT22;30476;53.468;9.826;2022-10-16T07:02:02;14.50;99.90
44166;DHT22;30476;53.468;9.826;2022-10-16T07:04:28;14.50;99.90
44166;DHT22;30476;53.468;9.826;2022-10-16T07:06:54;14.50;99.90
44166;DHT22;30476;53.468;9.826;2022-10-16T07:09:19;14.50;99.90
44166;DHT22;30476;53.468;9.826;2022-10-16T07:11:45;14.60;99.90
44166;DHT22;30476;53.468;9.826;2022-10-16T07:14:16;14.60;99.90
44166;DHT22;30476;53.468;9.826;2022-10-16T07:16:42;14.60;99.90
44166;DHT22;30476;53.468;9.826;2022-10-16T07:19:08;14.70;99.90
44166;DHT22;30476;53.468;9.826;2022-10-16T07:21:34;14.70;99.90
44166;DHT22;30476;53.468;9.826;2022-10-16T07:24:05;14.80;99.90
44166;DHT22;30476;53.468;9.826;2022-10-16T07:26:34;14.80;99.90
44166;DHT22;30476;53.468;9.826;2022-10-16T07:29:00;14.80;99.90
44166;DHT22;30476;53.468;9.826;2022-10-16T07:31:27;14.90;99.90
44166;DHT22;30476;53.468;9.826;2022-10-16T07:33:53;14.90;99.90
44166;DHT22;30476;53.468;9.826;2022-10-16T07:36:20;15.00;99.90
44166;DHT22;30476;53.468;9.826;2022-10-16T07:38:46;15.00;99.90
44166;DHT22;30476;53.468;9.826;2022-10-16T07:41:16;15.00;99.90
44166;DHT22;30476;53.468;9.826;2022-10-16T07:43:49;15.00;99.90
44166;DHT22;30476;53.468;9.826;2022-10-16T07:46:16;15.10;99.90
44166;DHT22;30476;53.468;9.826;2022-10-16T07:48:43;15.10;99.90
44166;DHT22;30476;53.468;9.826;2022-10-16T07:51:12;15.20;99.90
44166;DHT22;30476;53.468;9.826;2022-10-16T07:53:38;15.20;99.90
44166;DHT22;30476;53.468;9.826;2022-10-16T07:56:05;15.20;99.90
44166;DHT22;30476;53.468;9.826;2022-10-16T07:58:32;15.30;99.90
44166;DHT22;30476;53.468;9.826;2022-10-16T08:00:59;15.30;99.90
44166;DHT22;30476;53.468;9.826;2022-10-16T08:03:28;15.40;99.90
44166;DHT22;30476;53.468;9.826;2022-10-16T08:05:53;15.40;99.90
44166;DHT22;30476;53.468;9.826;2022-10-16T08:08:19;15.40;99.90
44166;DHT22;30476;53.468;9.826;2022-10-16T08:10:45;15.40;99.90
44166;DHT22;30476;53.468;9.826;2022-10-16T08:13:11;15.50;99.90
44166;DHT22;30476;53.468;9.826;2022-10-16T08:15:43;15.50;99.90
44166;DHT22;30476;53.468;9.826;2022-10-16T08:18:11;15.50;99.90
44166;DHT22;30476;53.468;9.826;2022-10-16T08:20:38;15.60;99.90
44166;DHT22;30476;53.468;9.826;2022-10-16T08:23:04;15.60;99.90
44166;DHT22;30476;53.468;9.826;2022-10-16T08:25:30;15.70;99.90
44166;DHT22;30476;53.468;9.826;2022-10-16T08:27:56;15.70;99.90
44166;DHT22;30476;53.468;9.826;2022-10-16T08:30:23;15.60;99.90
44166;DHT22;30476;53.468;9.826;2022-10-16T08:32:49;15.60;99.90
44166;DHT22;30476;53.468;9.826;2022-10-16T08:35:15;15.70;99.90
44166;DHT22;30476;53.468;9.826;2022-10-16T08:37:42;15.80;99.90
44166;DHT22;30476;53.468;9.826;2022-10-16T08:40:29;15.80;99.90
44166;DHT22;30476;53.468;9.826;2022-10-16T08:43:08;15.80;99.90
44166;DHT22;30476;53.468;9.826;2022-10-16T08:46:21;15.90;99.90
44166;DHT22;30476;53.468;9.826;2022-10-16T08:48:53;15.90;99.90
44166;DHT22;30476;53.468;9.826;2022-10-16T08:51:26;16.00;99.90
44166;DHT22;30476;53.468;9.826;2022-10-16T08:53:56;16.00;99.90
44166;DHT22;30476;53.468;9.826;2022-10-16T08:56:23;16.10;99.90
44166;DHT22;30476;53.468;9.826;2022-10-16T08:58:50;16.10;99.90
44166;DHT22;30476;53.468;9.826;2022-10-16T09:01:19;16.20;99.90
44166;DHT22;30476;53.468;9.826;2022-10-16T09:04:17;16.20;99.90
44166;DHT22;30476;53.468;9.826;2022-10-16T09:07:12;16.20;99.90
44166;DHT22;30476;53.468;9.826;2022-10-16T09:17:51;16.50;99.90
44166;DHT22;30476;53.468;9.826;2022-10-16T09:23:25;16.60;99.90
44166;DHT22;30476;53.468;9.826;2022-10-16T09:25:53;16.60;99.90
44166;DHT22;30476;53.468;9.826;2022-10-16T09:28:20;16.60;99.90
44166;DHT22;30476;53.468;9.826;2022-10-16T09:30:47;16.60;99.90
44166;DHT22;30476;53.468;9.826;2022-10-16T09:33:17;16.70;99.90
44166;DHT22;30476;53.468;9.826;2022-10-16T09:35:49;16.80;99.90
44166;DHT22;30476;53.468;9.826;2022-10-16T09:38:24;16.80;99.90
44166;DHT22;30476;53.468;9.826;2022-10-16T09:40:51;16.90;99.90
44166;DHT22;30476;53.468;9.826;2022-10-16T09:43:40;16.90;99.90
44166;DHT22;30476;53.468;9.826;2022-10-16T09:46:26;16.90;99.90
44166;DHT22;30476;53.468;9.826;2022-10-16T09:48:59;17.00;99.90
44166;DHT22;30476;53.468;9.826;2022-10-16T09:51:34;17.10;99.90
44166;DHT22;30476;53.468;9.826;2022-10-16T09:56:36;17.10;99.90
44166;DHT22;30476;53.468;9.826;2022-10-16T09:59:12;17.20;99.90
44166;DHT22;30476;53.468;9.826;2022-10-16T10:01:45;17.20;99.90
44166;DHT22;30476;53.468;9.826;2022-10-16T10:04:12;17.20;99.90
44166;DHT22;30476;53.468;9.826;2022-10-16T10:06:47;17.30;99.90
44166;DHT22;30476;53.468;9.826;2022-10-16T10:09:39;17.40;99.90
44166;DHT22;30476;53.468;9.826;2022-10-16T10:12:14;17.50;99.90
44166;DHT22;30476;53.468;9.826;2022-10-16T10:14:46;17.60;99.90
44166;DHT22;30476;53.468;9.826;2022-10-16T10:17:19;17.70;99.90
44166;DHT22;30476;53.468;9.826;2022-10-16T10:19:57;17.90;99.90
44166;DHT22;30476;53.468;9.826;2022-10-16T10:22:30;18.00;99.90
44166;DHT22;30476;53.468;9.826;2022-10-16T10:25:00;18.20;99.80
44166;DHT22;30476;53.468;9.826;2022-10-16T10:28:00;18.40;99.90
44166;DHT22;30476;53.468;9.826;2022-10-16T10:30:55;18.60;99.70
44166;DHT22;30476;53.468;9.826;2022-10-16T10:38:58;19.30;97.90
44166;DHT22;30476;53.468;9.826;2022-10-16T10:47:01;19.90;96.20
44166;DHT22;30476;53.468;9.826;2022-10-16T10:49:46;19.90;96.20
44166;DHT22;30476;53.468;9.826;2022-10-16T10:55:13;20.00;95.50
44166;DHT22;30476;53.468;9.826;2022-10-16T11:03:35;20.30;95.00
44166;DHT22;30476;53.468;9.826;2022-10-16T11:06:29;20.50;95.40
44166;DHT22;30476;53.468;9.826;2022-10-16T11:09:23;20.70;94.30
44166;DHT22;30476;53.468;9.826;2022-10-16T11:11:58;20.90;93.30
44166;DHT22;30476;53.468;9.826;2022-10-16T11:14:38;21.00;92.80
44166;DHT22;30476;53.468;9.826;2022-10-16T11:17:17;21.20;92.90
44166;DHT22;30476;53.468;9.826;2022-10-16T11:19:54;21.40;93.10
44166;DHT22;30476;53.468;9.826;2022-10-16T11:22:40;21.50;92.50
44166;DHT22;30476;53.468;9.826;2022-10-16T11:25:43;21.60;91.90
44166;DHT22;30476;53.468;9.826;2022-10-16T11:28:23;21.70;91.70
44166;DHT22;30476;53.468;9.826;2022-10-16T11:31:07;21.70;91.70
44166;DHT22;30476;53.468;9.826;2022-10-16T11:33:51;21.70;90.90
44166;DHT22;30476;53.468;9.826;2022-10-16T11:36:31;21.70;91.10
44166;DHT22;30476;53.468;9.826;2022-10-16T11:41:44;21.70;91.20
44166;DHT22;30476;53.468;9.826;2022-10-16T11:55:43;21.80;87.90
44166;DHT22;30476;53.468;9.826;2022-10-16T11:58:26;21.80;87.60
44166;DHT22;30476;53.468;9.826;2022-10-16T12:00:58;21.70;87.80
44166;DHT22;30476;53.468;9.826;2022-10-16T12:06:25;21.40;87.50
44166;DHT22;30476;53.468;9.826;2022-10-16T12:08:54;21.40;87.80
44166;DHT22;30476;53.468;9.826;2022-10-16T12:14:19;21.20;87.30
44166;DHT22;30476;53.468;9.826;2022-10-16T12:16:56;21.00;86.90
44166;DHT22;30476;53.468;9.826;2022-10-16T12:19:24;21.00;88.10
44166;DHT22;30476;53.468;9.826;2022-10-16T12:21:51;20.90;88.00
44166;DHT22;30476;53.468;9.826;2022-10-16T12:26:48;20.60;87.00
44166;DHT22;30476;53.468;9.826;2022-10-16T12:31:48;20.50;88.30
44166;DHT22;30476;53.468;9.826;2022-10-16T12:34:37;20.50;88.90
44166;DHT22;30476;53.468;9.826;2022-10-16T12:37:25;20.50;90.20
44166;DHT22;30476;53.468;9.826;2022-10-16T12:39:53;20.60;90.00
44166;DHT22;30476;53.468;9.826;2022-10-16T12:44:52;20.80;87.40
44166;DHT22;30476;53.468;9.826;2022-10-16T12:47:34;20.90;86.80
44166;DHT22;30476;53.468;9.826;2022-10-16T12:50:00;20.90;87.10
44166;DHT22;30476;53.468;9.826;2022-10-16T12:52:34;20.80;86.90
44166;DHT22;30476;53.468;9.826;2022-10-16T12:55:00;20.80;87.60
44166;DHT22;30476;53.468;9.826;2022-10-16T12:57:55;20.80;88.80
44166;DHT22;30476;53.468;9.826;2022-10-16T13:03:31;20.90;88.70
44166;DHT22;30476;53.468;9.826;2022-10-16T13:06:14;21.00;88.00
44166;DHT22;30476;53.468;9.826;2022-10-16T13:11:49;21.40;87.10
44166;DHT22;30476;53.468;9.826;2022-10-16T13:17:18;21.90;87.40
44166;DHT22;30476;53.468;9.826;2022-10-16T13:20:22;22.10;85.90
44166;DHT22;30476;53.468;9.826;2022-10-16T13:22:55;22.20;84.10
44166;DHT22;30476;53.468;9.826;2022-10-16T13:28:11;22.40;82.50
44166;DHT22;30476;53.468;9.826;2022-10-16T13:30:43;22.50;82.40
44166;DHT22;30476;53.468;9.826;2022-10-16T13:33:37;22.50;81.60
44166;DHT22;30476;53.468;9.826;2022-10-16T13:36:05;22.50;81.10
44166;DHT22;30476;53.468;9.826;2022-10-16T13:38:34;22.50;81.70
44166;DHT22;30476;53.468;9.826;2022-10-16T13:41:11;22.60;82.30
44166;DHT22;30476;53.468;9.826;2022-10-16T13:43:50;22.60;82.70
44166;DHT22;30476;53.468;9.826;2022-10-16T13:46:21;22.70;82.30
44166;DHT22;30476;53.468;9.826;2022-10-16T13:51:23;22.80;81.50
44166;DHT22;30476;53.468;9.826;2022-10-16T13:53:49;22.70;81.60
44166;DHT22;30476;53.468;9.826;2022-10-16T13:56:26;22.70;80.20
44166;DHT22;30476;53.468;9.826;2022-10-16T13:59:01;22.70;79.80
44166;DHT22;30476;53.468;9.826;2022-10-16T14:01:35;22.60;78.40
44166;DHT22;30476;53.468;9.826;2022-10-16T14:04:08;22.60;78.20
44166;DHT22;30476;53.468;9.826;2022-10-16T14:06:35;22.50;77.80
44166;DHT22;30476;53.468;9.826;2022-10-16T14:09:07;22.40;77.70
44166;DHT22;30476;53.468;9.826;2022-10-16T14:11:41;22.30;78.50
44166;DHT22;30476;53.468;9.826;2022-10-16T14:14:13;22.30;78.70
44166;DHT22;30476;53.468;9.826;2022-10-16T14:16:41;22.10;78.90
44166;DHT22;30476;53.468;9.826;2022-10-16T14:19:28;22.00;79.20
44166;DHT22;30476;53.468;9.826;2022-10-16T14:21:56;21.90;79.50
44166;DHT22;30476;53.468;9.826;2022-10-16T14:24:32;21.80;79.90
44166;DHT22;30476;53.468;9.826;2022-10-16T14:26:59;21.60;80.30
44166;DHT22;30476;53.468;9.826;2022-10-16T14:29:28;21.50;81.10
44166;DHT22;30476;53.468;9.826;2022-10-16T14:32:22;21.40;81.30
44166;DHT22;30476;53.468;9.826;2022-10-16T14:34:53;21.20;82.00
44166;DHT22;30476;53.468;9.826;2022-10-16T14:39:51;21.00;82.50
44166;DHT22;30476;53.468;9.826;2022-10-16T14:42:19;20.90;82.70
44166;DHT22;30476;53.468;9.826;2022-10-16T14:44:46;20.80;83.00
44166;DHT22;30476;53.468;9.826;2022-10-16T14:47:17;20.70;83.10
44166;DHT22;30476;53.468;9.826;2022-10-16T14:49:48;20.70;83.70
44166;DHT22;30476;53.468;9.826;2022-10-16T14:52:14;20.70;84.10
44166;DHT22;30476;53.468;9.826;2022-10-16T14:54:40;20.50;83.50
44166;DHT22;30476;53.468;9.826;2022-10-16T14:57:19;20.40;84.20
44166;DHT22;30476;53.468;9.826;2022-10-16T14:59:47;20.40;84.50
44166;DHT22;30476;53.468;9.826;2022-10-16T15:02:31;20.30;84.90
44166;DHT22;30476;53.468;9.826;2022-10-16T15:04:57;20.30;85.10
44166;DHT22;30476;53.468;9.826;2022-10-16T15:07:24;20.20;85.00
44166;DHT22;30476;53.468;9.826;2022-10-16T15:09:50;20.10;85.20
44166;DHT22;30476;53.468;9.826;2022-10-16T15:12:17;20.00;85.40
44166;DHT22;30476;53.468;9.826;2022-10-16T15:14:43;19.90;85.40
44166;DHT22;30476;53.468;9.826;2022-10-16T15:17:12;19.90;86.00
44166;DHT22;30476;53.468;9.826;2022-10-16T15:19:37;19.80;86.30
44166;DHT22;30476;53.468;9.826;2022-10-16T15:22:03;19.70;86.30
44166;DHT22;30476;53.468;9.826;2022-10-16T15:24:29;19.60;86.50
44166;DHT22;30476;53.468;9.826;2022-10-16T15:26:55;19.60;86.70
44166;DHT22;30476;53.468;9.826;2022-10-16T15:29:21;19.50;87.10
44166;DHT22;30476;53.468;9.826;2022-10-16T15:31:46;19.40;87.60
44166;DHT22;30476;53.468;9.826;2022-10-16T15:34:13;19.30;87.70
44166;DHT22;30476;53.468;9.826;2022-10-16T15:36:40;19.30;87.90
44166;DHT22;30476;53.468;9.826;2022-10-16T15:39:13;19.20;88.20
44166;DHT22;30476;53.468;9.826;2022-10-16T15:41:39;19.10;88.50
44166;DHT22;30476;53.468;9.826;2022-10-16T15:44:05;19.00;88.90
44166;DHT22;30476;53.468;9.826;2022-10-16T15:46:31;19.00;89.50
44166;DHT22;30476;53.468;9.826;2022-10-16T15:48:59;18.90;89.50
44166;DHT22;30476;53.468;9.826;2022-10-16T15:51:26;18.80;90.00
44166;DHT22;30476;53.468;9.826;2022-10-16T15:53:57;18.80;90.10
44166;DHT22;30476;53.468;9.826;2022-10-16T15:56:24;18.60;90.20
44166;DHT22;30476;53.468;9.826;2022-10-16T15:58:54;18.60;90.20
44166;DHT22;30476;53.468;9.826;2022-10-16T16:01:20;18.50;90.10
44166;DHT22;30476;53.468;9.826;2022-10-16T16:03:47;18.40;90.10
44166;DHT22;30476;53.468;9.826;2022-10-16T16:06:13;18.40;90.30
44166;DHT22;30476;53.468;9.826;2022-10-16T16:08:39;18.30;90.50
44166;DHT22;30476;53.468;9.826;2022-10-16T16:11:09;18.20;90.70
44166;DHT22;30476;53.468;9.826;2022-10-16T16:13:35;18.20;90.80
44166;DHT22;30476;53.468;9.826;2022-10-16T16:16:11;18.10;91.00
44166;DHT22;30476;53.468;9.826;2022-10-16T16:18:37;18.00;91.10
44166;DHT22;30476;53.468;9.826;2022-10-16T16:21:04;17.90;91.20
44166;DHT22;30476;53.468;9.826;2022-10-16T16:23:31;17.80;91.40
44166;DHT22;30476;53.468;9.826;2022-10-16T16:28:36;17.70;91.60
44166;DHT22;30476;53.468;9.826;2022-10-16T16:31:02;17.60;91.80
44166;DHT22;30476;53.468;9.826;2022-10-16T16:33:28;17.50;91.90
44166;DHT22;30476;53.468;9.826;2022-10-16T16:35:59;17.40;92.00
44166;DHT22;30476;53.468;9.826;2022-10-16T16:38:25;17.30;92.00
44166;DHT22;30476;53.468;9.826;2022-10-16T16:40:52;17.20;92.00
44166;DHT22;30476;53.468;9.826;2022-10-16T16:43:18;17.10;92.20
44166;DHT22;30476;53.468;9.826;2022-10-16T16:45:44;17.00;92.30
44166;DHT22;30476;53.468;9.826;2022-10-16T16:48:10;17.00;92.50
44166;DHT22;30476;53.468;9.826;2022-10-16T16:50:37;16.90;92.60
44166;DHT22;30476;53.468;9.826;2022-10-16T16:53:03;16.80;92.50
44166;DHT22;30476;53.468;9.826;2022-10-16T16:55:29;16.70;92.60
44166;DHT22;30476;53.468;9.826;2022-10-16T16:57:55;16.60;92.80
44166;DHT22;30476;53.468;9.826;2022-10-16T17:00:22;16.50;92.70
44166;DHT22;30476;53.468;9.826;2022-10-16T17:02:51;16.50;93.00
44166;DHT22;30476;53.468;9.826;2022-10-16T17:05:17;16.40;93.10
44166;DHT22;30476;53.468;9.826;2022-10-16T17:07:44;16.30;93.20
44166;DHT22;30476;53.468;9.826;2022-10-16T17:10:09;16.30;93.40
44166;DHT22;30476;53.468;9.826;2022-10-16T17:12:35;16.20;93.50
44166;DHT22;30476;53.468;9.826;2022-10-16T17:15:01;16.10;93.50
44166;DHT22;30476;53.468;9.826;2022-10-16T17:17:27;16.00;93.50
44166;DHT22;30476;53.468;9.826;2022-10-16T17:19:53;15.90;93.60
44166;DHT22;30476;53.468;9.826;2022-10-16T17:22:19;15.80;93.70